Terminal Aerodrome Forecast
Issued by NWS Rapid City, SD

Home | Current Version | Previous Version | Text Only | Print | Product List | Glossary On
Versions: 1 2 3 4 5 6 7 8 9 10 11 12 13 14 15 16 17 18 19
017
FTUS43 KUNR 121731
TAFRAP
TAF
KRAP 121731Z 1218/1318 VRB04KT 5SM FU SKC
     FM122000 30010KT P6SM SKC
     FM130300 32018G28KT P6SM SKC
     FM130700 31035G50KT P6SM FEW250=

USA.gov is the U.S. government's official web portal to all federal, state and local government web resources and services.